createdAt,value
2022-10-10T00:01:26.029Z,11.90
2022-10-10T00:03:54.174Z,12.00
2022-10-10T00:06:21.749Z,12.10
2022-10-10T00:08:49.295Z,12.00
2022-10-10T00:11:20.120Z,12.10
2022-10-10T00:13:47.046Z,12.10
2022-10-10T00:16:14.939Z,12.20
2022-10-10T00:18:42.667Z,12.20
2022-10-10T00:21:10.548Z,12.20
2022-10-10T00:23:38.199Z,12.20
2022-10-10T00:26:09.012Z,12.30
2022-10-10T00:28:38.629Z,12.30
2022-10-10T00:31:10.199Z,12.30
2022-10-10T00:33:37.895Z,12.40
2022-10-10T00:36:06.699Z,12.40
2022-10-10T00:38:33.610Z,12.40
2022-10-10T00:41:01.332Z,12.50
2022-10-10T00:43:29.783Z,12.50
2022-10-10T00:45:57.069Z,12.50
2022-10-10T00:48:35.151Z,12.50
2022-10-10T00:51:14.892Z,12.50
2022-10-10T00:53:46.403Z,12.60
2022-10-10T00:56:17.274Z,12.60
2022-10-10T00:58:48.798Z,12.50
2022-10-10T01:01:15.940Z,12.60
2022-10-10T01:03:42.941Z,12.60
2022-10-10T01:06:10.458Z,12.60
2022-10-10T01:08:37.917Z,12.70
2022-10-10T01:11:41.988Z,12.70
2022-10-10T01:14:36.109Z,12.70
2022-10-10T01:17:25.512Z,12.70
2022-10-10T01:20:14.215Z,12.70
2022-10-10T01:22:46.762Z,12.70
2022-10-10T01:25:29.870Z,12.70
2022-10-10T01:28:18.310Z,12.70
2022-10-10T01:30:48.722Z,12.70
2022-10-10T01:33:22.409Z,12.70
2022-10-10T01:36:04.323Z,12.80
2022-10-10T01:38:50.560Z,12.80
2022-10-10T01:42:25.751Z,12.80
2022-10-10T01:44:53.956Z,12.80
2022-10-10T01:47:22.322Z,12.80
2022-10-10T01:49:56.347Z,12.80
2022-10-10T01:53:01.262Z,12.80
2022-10-10T01:56:06.405Z,12.90
2022-10-10T01:59:00.259Z,12.90
2022-10-10T02:01:41.361Z,12.90
2022-10-10T02:04:51.478Z,12.90
2022-10-10T02:07:36.546Z,12.90
2022-10-10T02:10:07.640Z,13.00
2022-10-10T02:12:36.430Z,12.90
2022-10-10T02:15:14.115Z,13.00
2022-10-10T02:17:45.166Z,13.00
2022-10-10T02:20:18.126Z,13.00
2022-10-10T02:22:47.175Z,13.00
2022-10-10T02:25:14.513Z,13.00
2022-10-10T02:27:59.614Z,13.00
2022-10-10T02:30:26.902Z,13.00
2022-10-10T02:33:01.513Z,13.00
2022-10-10T02:35:35.584Z,13.00
2022-10-10T02:38:05.194Z,12.90
2022-10-10T02:40:35.829Z,12.90
2022-10-10T02:43:07.467Z,12.90
2022-10-10T02:45:35.367Z,12.90
2022-10-10T02:48:03.239Z,12.90
2022-10-10T02:50:31.574Z,13.00
2022-10-10T02:52:59.652Z,13.00
2022-10-10T02:55:27.183Z,13.00
2022-10-10T02:57:54.162Z,13.00
2022-10-10T03:00:21.928Z,13.00
2022-10-10T03:02:49.181Z,13.00
2022-10-10T03:05:16.319Z,13.10
2022-10-10T03:07:43.130Z,13.00
2022-10-10T03:10:10.466Z,13.00
2022-10-10T03:12:37.493Z,13.10
2022-10-10T03:15:11.246Z,13.00
2022-10-10T03:17:38.827Z,13.10
2022-10-10T03:20:06.904Z,13.00
2022-10-10T03:22:33.742Z,13.10
2022-10-10T03:25:00.637Z,13.00
2022-10-10T03:27:27.451Z,13.10
2022-10-10T03:29:54.282Z,13.10
2022-10-10T03:32:21.436Z,13.10
2022-10-10T03:34:48.268Z,13.10
2022-10-10T03:37:15.111Z,13.10
2022-10-10T03:39:41.949Z,13.10
2022-10-10T03:42:08.734Z,13.10
2022-10-10T03:44:35.563Z,13.00
2022-10-10T03:47:02.425Z,13.00
2022-10-10T03:49:29.562Z,13.00
2022-10-10T03:51:56.291Z,13.00
2022-10-10T03:54:23.263Z,13.00
2022-10-10T03:56:50.117Z,13.00
2022-10-10T03:59:16.992Z,13.00
2022-10-10T04:01:43.846Z,13.00
2022-10-10T04:04:10.687Z,13.00
2022-10-10T04:06:37.517Z,13.00
2022-10-10T04:09:04.587Z,13.00
2022-10-10T04:11:31.718Z,13.00
2022-10-10T04:13:58.496Z,13.00
2022-10-10T04:16:25.324Z,13.00
2022-10-10T04:18:52.100Z,13.00
2022-10-10T04:21:18.977Z,13.00
2022-10-10T04:23:45.845Z,12.90
2022-10-10T04:26:12.633Z,12.90
2022-10-10T04:28:39.519Z,13.00
2022-10-10T04:31:07.078Z,12.90
2022-10-10T04:33:33.955Z,12.90
2022-10-10T04:36:00.734Z,12.90
2022-10-10T04:38:29.066Z,12.90
2022-10-10T04:40:55.992Z,12.90
2022-10-10T04:43:22.813Z,12.90
2022-10-10T04:45:49.626Z,12.90
2022-10-10T04:48:16.448Z,12.90
2022-10-10T04:50:43.400Z,13.00
2022-10-10T04:53:10.315Z,13.00
2022-10-10T04:55:37.102Z,13.00
2022-10-10T04:58:03.929Z,13.00
2022-10-10T05:00:30.800Z,13.10
2022-10-10T05:02:57.649Z,13.00
2022-10-10T05:05:24.490Z,13.00
2022-10-10T05:07:55.340Z,13.00
2022-10-10T05:10:23.698Z,13.00
2022-10-10T05:12:51.353Z,13.00
2022-10-10T05:15:19.333Z,13.00
2022-10-10T05:17:46.164Z,13.10
2022-10-10T05:20:13.316Z,13.00
2022-10-10T05:22:40.079Z,13.00
2022-10-10T05:25:07.816Z,13.00
2022-10-10T05:27:34.610Z,13.00
2022-10-10T05:30:01.402Z,12.90
2022-10-10T05:32:28.218Z,12.90
2022-10-10T05:34:54.990Z,12.90
2022-10-10T05:37:22.049Z,12.90
2022-10-10T05:39:53.732Z,12.90
2022-10-10T05:42:21.631Z,12.90
2022-10-10T05:44:48.529Z,12.90
2022-10-10T05:47:16.183Z,12.90
2022-10-10T05:49:43.073Z,12.90
2022-10-10T05:52:10.262Z,12.90
2022-10-10T05:54:37.067Z,12.90
2022-10-10T05:57:03.951Z,12.90
2022-10-10T05:59:31.279Z,12.90
2022-10-10T06:01:58.910Z,12.90
2022-10-10T06:04:25.796Z,13.00
2022-10-10T06:06:52.754Z,12.90
2022-10-10T06:09:19.586Z,13.00
2022-10-10T06:11:46.368Z,13.00
2022-10-10T06:14:13.172Z,13.00
2022-10-10T06:16:40.372Z,13.00
2022-10-10T06:19:10.277Z,13.00
2022-10-10T06:21:39.545Z,13.10
2022-10-10T06:24:06.934Z,13.10
2022-10-10T06:26:33.826Z,13.10
2022-10-10T06:29:00.655Z,13.20
2022-10-10T06:31:27.460Z,13.20
2022-10-10T06:33:54.338Z,13.20
2022-10-10T06:36:21.134Z,13.30
2022-10-10T06:38:47.982Z,13.40
2022-10-10T06:41:14.811Z,13.50
2022-10-10T06:43:41.647Z,13.60
2022-10-10T06:46:10.150Z,13.70
2022-10-10T06:48:37.912Z,13.80
2022-10-10T06:51:18.552Z,14.00
2022-10-10T06:53:46.633Z,14.10
2022-10-10T06:56:26.340Z,14.20
2022-10-10T06:58:54.276Z,14.30
2022-10-10T07:01:23.169Z,14.50
2022-10-10T07:03:50.346Z,14.60
2022-10-10T07:06:18.267Z,14.70
2022-10-10T07:08:45.142Z,14.80
2022-10-10T07:11:12.655Z,15.00
2022-10-10T07:13:39.817Z,15.30
2022-10-10T07:16:07.493Z,15.50
2022-10-10T07:18:37.142Z,15.80
2022-10-10T07:21:04.933Z,16.20
2022-10-10T07:23:32.883Z,16.50
2022-10-10T07:26:04.415Z,16.80
2022-10-10T07:28:31.759Z,17.00
2022-10-10T07:31:03.291Z,17.30
2022-10-10T07:33:48.943Z,17.40
2022-10-10T07:36:17.045Z,17.50
2022-10-10T07:38:43.867Z,17.50
2022-10-10T07:41:13.528Z,17.50
2022-10-10T07:43:40.628Z,17.60
2022-10-10T07:46:16.764Z,17.60
2022-10-10T07:48:44.095Z,17.60
2022-10-10T07:51:12.120Z,17.60
2022-10-10T07:53:40.751Z,17.70
2022-10-10T07:56:09.107Z,17.80
2022-10-10T07:58:36.765Z,17.90
2022-10-10T08:01:10.730Z,18.00
2022-10-10T08:03:38.511Z,18.10
2022-10-10T08:06:08.761Z,18.40
2022-10-10T08:08:44.888Z,18.60
2022-10-10T08:11:18.350Z,18.80
2022-10-10T08:13:45.336Z,19.20
2022-10-10T08:16:12.298Z,19.40
2022-10-10T08:18:39.130Z,19.70
2022-10-10T08:21:10.358Z,20.00
2022-10-10T08:23:37.796Z,20.20
2022-10-10T08:26:08.646Z,20.40
2022-10-10T08:28:36.554Z,20.50
2022-10-10T08:31:09.146Z,20.70
2022-10-10T08:33:37.033Z,20.80
2022-10-10T08:36:10.139Z,20.90
2022-10-10T08:38:37.964Z,20.90
2022-10-10T08:41:42.861Z,21.00
2022-10-10T08:44:47.527Z,21.20
2022-10-10T08:47:44.961Z,21.50
2022-10-10T08:50:34.233Z,21.80
2022-10-10T08:53:03.810Z,22.00
2022-10-10T08:55:39.391Z,22.10
2022-10-10T08:58:11.297Z,22.30
2022-10-10T09:01:10.174Z,22.40
2022-10-10T09:03:55.217Z,22.60
2022-10-10T09:06:30.663Z,22.70
2022-10-10T09:09:06.503Z,22.70
2022-10-10T09:12:18.292Z,22.80
2022-10-10T09:15:10.896Z,22.90
2022-10-10T09:18:39.888Z,23.10
2022-10-10T09:21:18.066Z,23.50
2022-10-10T09:23:58.837Z,24.00
2022-10-10T09:26:31.143Z,24.30
2022-10-10T09:29:25.361Z,24.80
2022-10-10T09:32:17.281Z,25.20
2022-10-10T09:35:12.406Z,25.70
2022-10-10T09:37:48.621Z,26.20
2022-10-10T09:40:33.704Z,26.60
2022-10-10T09:43:15.294Z,27.00
2022-10-10T09:45:52.831Z,27.50
2022-10-10T09:48:24.776Z,27.90
2022-10-10T09:50:51.572Z,28.20
2022-10-10T09:53:18.427Z,28.50
2022-10-10T09:55:47.897Z,28.70
2022-10-10T09:58:31.443Z,28.80
2022-10-10T10:01:18.481Z,28.70
2022-10-10T10:04:34.245Z,28.50
2022-10-10T10:07:37.856Z,28.10
2022-10-10T10:10:27.159Z,27.60
2022-10-10T10:12:55.477Z,27.10
2022-10-10T10:15:25.295Z,26.80
2022-10-10T10:18:16.729Z,26.50
2022-10-10T10:20:53.396Z,26.20
2022-10-10T10:23:36.729Z,26.10
2022-10-10T10:26:20.045Z,26.00
2022-10-10T10:28:49.032Z,26.10
2022-10-10T10:31:56.868Z,26.10
2022-10-10T10:34:52.106Z,26.10
2022-10-10T10:37:47.593Z,26.10
2022-10-10T10:40:41.656Z,25.90
2022-10-10T10:43:55.111Z,25.70
2022-10-10T10:46:51.578Z,25.60
2022-10-10T10:49:28.389Z,25.40
2022-10-10T10:52:36.229Z,25.30
2022-10-10T10:56:05.187Z,25.30
2022-10-10T10:59:34.510Z,25.20
2022-10-10T11:02:37.023Z,25.20
2022-10-10T11:05:56.320Z,25.10
2022-10-10T11:09:04.865Z,25.10
2022-10-10T11:12:17.644Z,25.10
2022-10-10T11:14:50.550Z,25.10
2022-10-10T11:17:37.256Z,25.10
2022-10-10T11:20:22.019Z,25.10
2022-10-10T11:26:02.071Z,25.10
2022-10-10T11:28:51.127Z,25.20
2022-10-10T11:31:59.350Z,25.30
2022-10-10T11:34:58.180Z,25.30
2022-10-10T11:37:31.745Z,25.30
2022-10-10T11:40:05.208Z,25.40
2022-10-10T11:42:52.794Z,25.40
2022-10-10T11:45:34.575Z,25.40
2022-10-10T11:48:21.208Z,25.40
2022-10-10T11:50:59.634Z,25.50
2022-10-10T11:53:44.581Z,25.40
2022-10-10T11:56:37.210Z,25.50
2022-10-10T11:59:30.590Z,25.40
2022-10-10T12:02:01.687Z,25.40
2022-10-10T12:04:38.112Z,25.30
2022-10-10T12:07:13.711Z,25.20
2022-10-10T12:09:54.281Z,25.10
2022-10-10T12:12:32.374Z,25.10
2022-10-10T12:15:03.618Z,25.00
2022-10-10T12:17:39.783Z,24.90
2022-10-10T12:20:37.095Z,24.90
2022-10-10T12:23:29.789Z,24.80
2022-10-10T12:25:56.726Z,24.80
2022-10-10T12:28:57.632Z,24.90
2022-10-10T12:31:37.256Z,24.80
2022-10-10T12:34:40.560Z,24.80
2022-10-10T12:37:21.685Z,24.80
2022-10-10T12:40:20.726Z,24.80
2022-10-10T12:42:47.413Z,24.70
2022-10-10T12:45:29.598Z,24.60
2022-10-10T12:48:05.927Z,24.50
2022-10-10T12:50:41.927Z,24.50
2022-10-10T12:53:23.038Z,24.40
2022-10-10T12:55:58.058Z,24.40
2022-10-10T12:58:28.568Z,24.30
2022-10-10T13:00:57.981Z,24.30
2022-10-10T13:03:32.609Z,24.30
2022-10-10T13:06:19.810Z,24.20
2022-10-10T13:08:47.586Z,24.20
2022-10-10T13:11:15.981Z,24.20
2022-10-10T13:13:56.255Z,24.10
2022-10-10T13:16:33.490Z,24.10
2022-10-10T13:19:01.123Z,24.10
2022-10-10T13:21:33.991Z,24.00
2022-10-10T13:24:05.714Z,23.90
2022-10-10T13:26:39.338Z,23.80
2022-10-10T13:29:30.276Z,23.70
2022-10-10T13:32:24.015Z,23.60
2022-10-10T13:34:58.168Z,23.60
2022-10-10T13:37:26.153Z,23.50
2022-10-10T13:39:54.422Z,23.40
2022-10-10T13:42:31.700Z,23.40
2022-10-10T13:45:03.176Z,23.30
2022-10-10T13:47:57.695Z,23.30
2022-10-10T13:50:53.349Z,23.30
2022-10-10T13:53:30.172Z,23.30
2022-10-10T13:56:06.089Z,23.20
2022-10-10T13:58:52.338Z,23.20
2022-10-10T14:01:28.933Z,23.20
2022-10-10T14:04:16.379Z,23.30
2022-10-10T14:07:01.873Z,23.20
2022-10-10T14:09:41.206Z,23.20
2022-10-10T14:12:20.689Z,23.20
2022-10-10T14:14:52.190Z,23.20
2022-10-10T14:17:19.540Z,23.20
2022-10-10T14:19:47.922Z,23.10
2022-10-10T14:22:14.866Z,23.10
2022-10-10T14:24:41.685Z,23.10
2022-10-10T14:27:24.896Z,23.00
2022-10-10T14:29:54.388Z,23.00
2022-10-10T14:32:22.565Z,23.00
2022-10-10T14:34:49.455Z,22.90
2022-10-10T14:37:28.604Z,22.90
2022-10-10T14:39:56.491Z,22.90
2022-10-10T14:42:25.744Z,22.80
2022-10-10T14:44:52.667Z,22.80
2022-10-10T14:47:22.997Z,22.80
2022-10-10T14:49:50.021Z,22.70
2022-10-10T14:52:16.872Z,22.70
2022-10-10T14:54:43.716Z,22.70
2022-10-10T14:57:13.316Z,22.70
2022-10-10T14:59:45.925Z,22.60
2022-10-10T15:02:16.145Z,22.60
2022-10-10T15:04:42.942Z,22.60
2022-10-10T15:07:13.822Z,22.60
2022-10-10T15:09:56.551Z,22.70
2022-10-10T15:12:29.198Z,22.60
2022-10-10T15:14:56.038Z,22.60
2022-10-10T15:17:24.340Z,22.60
2022-10-10T15:19:52.182Z,22.60
2022-10-10T15:22:19.540Z,22.60
2022-10-10T15:24:46.337Z,22.50
2022-10-10T15:27:13.521Z,22.40
2022-10-10T15:29:40.365Z,22.50
2022-10-10T15:32:07.722Z,22.40
2022-10-10T15:34:35.064Z,22.40
2022-10-10T15:37:02.490Z,22.30
2022-10-10T15:39:30.882Z,22.30
2022-10-10T15:41:57.928Z,22.20
2022-10-10T15:44:24.908Z,22.20
2022-10-10T15:46:52.146Z,22.20
2022-10-10T15:49:19.452Z,22.20
2022-10-10T15:51:47.422Z,22.10
2022-10-10T15:54:15.199Z,22.10
2022-10-10T15:56:42.447Z,22.00
2022-10-10T15:59:13.317Z,22.00
2022-10-10T16:01:40.427Z,22.00
2022-10-10T16:04:07.377Z,22.00
2022-10-10T16:06:34.219Z,21.90
2022-10-10T16:09:23.553Z,21.90
2022-10-10T16:11:49.098Z,21.80
2022-10-10T16:14:16.302Z,21.80
2022-10-10T16:16:43.218Z,21.70
2022-10-10T16:19:10.120Z,21.70
2022-10-10T16:21:37.086Z,21.60
2022-10-10T16:24:04.589Z,21.60
2022-10-10T16:26:33.553Z,21.50
2022-10-10T16:29:01.629Z,21.50
2022-10-10T16:31:29.850Z,21.40
2022-10-10T16:33:59.333Z,21.40
2022-10-10T16:36:30.766Z,21.30
2022-10-10T16:38:59.130Z,21.30
2022-10-10T16:41:48.706Z,21.20
2022-10-10T16:44:17.607Z,21.20
2022-10-10T16:46:45.212Z,21.10
2022-10-10T16:49:20.389Z,21.10
2022-10-10T16:51:47.274Z,21.00
2022-10-10T16:54:14.215Z,21.00
2022-10-10T16:56:41.926Z,20.90
2022-10-10T16:59:09.111Z,20.80
2022-10-10T17:01:36.209Z,20.80
2022-10-10T17:04:04.201Z,20.70
2022-10-10T17:06:37.432Z,20.70
2022-10-10T17:09:07.942Z,20.70
2022-10-10T17:11:35.478Z,20.60
2022-10-10T17:14:02.391Z,20.60
2022-10-10T17:19:17.697Z,20.50
2022-10-10T17:21:44.629Z,20.40
2022-10-10T17:24:14.533Z,20.40
2022-10-10T17:26:41.727Z,20.30
2022-10-10T17:29:08.778Z,20.30
2022-10-10T17:31:36.202Z,20.20
2022-10-10T17:34:03.340Z,20.20
2022-10-10T17:36:30.992Z,20.10
2022-10-10T17:39:00.242Z,20.10
2022-10-10T17:41:28.376Z,20.10
2022-10-10T17:43:55.949Z,20.10
2022-10-10T17:46:34.828Z,20.00
2022-10-10T17:49:07.836Z,20.00
2022-10-10T17:51:36.961Z,20.00
2022-10-10T17:54:06.472Z,19.90
2022-10-10T17:56:34.178Z,19.90
2022-10-10T17:59:01.862Z,19.80
2022-10-10T18:01:32.516Z,19.80
2022-10-10T18:04:04.171Z,19.70
2022-10-10T18:06:33.051Z,19.70
2022-10-10T18:09:02.464Z,19.70
2022-10-10T18:11:31.609Z,19.60
2022-10-10T18:14:01.657Z,19.60
2022-10-10T18:16:33.959Z,19.50
2022-10-10T18:19:03.384Z,19.50
2022-10-10T18:21:30.250Z,19.50
2022-10-10T18:23:57.207Z,19.50
2022-10-10T18:26:26.948Z,19.50
2022-10-10T18:28:55.954Z,19.40
2022-10-10T18:31:33.681Z,19.40
2022-10-10T18:34:02.462Z,19.40
2022-10-10T18:36:35.965Z,19.30
2022-10-10T18:39:10.924Z,19.30
2022-10-10T18:41:38.140Z,19.20
2022-10-10T18:44:10.632Z,19.20
2022-10-10T18:46:38.638Z,19.20
2022-10-10T18:49:09.036Z,19.10
2022-10-10T18:51:37.532Z,19.10
2022-10-10T18:54:08.838Z,19.00
2022-10-10T18:56:39.020Z,19.00
2022-10-10T18:59:10.889Z,18.90
2022-10-10T19:01:40.065Z,18.90
2022-10-10T19:04:09.808Z,18.80
2022-10-10T19:06:38.891Z,18.80
2022-10-10T19:09:09.760Z,18.70
2022-10-10T19:11:41.907Z,18.60
2022-10-10T19:14:13.718Z,18.60
2022-10-10T19:16:43.191Z,18.50
2022-10-10T19:19:13.731Z,18.40
2022-10-10T19:21:40.851Z,18.40
2022-10-10T19:24:09.435Z,18.30
2022-10-10T19:26:37.184Z,18.20
2022-10-10T19:29:08.481Z,18.10
2022-10-10T19:31:40.572Z,18.10
2022-10-10T19:34:07.788Z,18.00
2022-10-10T19:36:38.498Z,17.90
2022-10-10T19:39:07.810Z,17.90
2022-10-10T19:41:34.981Z,17.80
2022-10-10T19:44:05.248Z,17.80
2022-10-10T19:46:36.733Z,17.70
2022-10-10T19:49:04.994Z,17.70
2022-10-10T19:51:31.942Z,17.60
2022-10-10T19:53:58.960Z,17.50
2022-10-10T19:56:26.763Z,17.50
2022-10-10T19:58:56.810Z,17.40
2022-10-10T20:01:29.259Z,17.40
2022-10-10T20:03:57.775Z,17.30
2022-10-10T20:06:25.437Z,17.30
2022-10-10T20:08:52.435Z,17.20
2022-10-10T20:11:20.234Z,17.20
2022-10-10T20:13:51.789Z,17.20
2022-10-10T20:16:18.838Z,17.10
2022-10-10T20:18:45.766Z,17.10
2022-10-10T20:21:29.547Z,17.00
2022-10-10T20:23:58.732Z,17.00
2022-10-10T20:26:27.768Z,16.90
2022-10-10T20:28:56.935Z,16.90
2022-10-10T20:31:28.298Z,16.80
2022-10-10T20:33:58.798Z,16.80
2022-10-10T20:36:26.961Z,16.80
2022-10-10T20:38:57.034Z,16.70
2022-10-10T20:41:26.696Z,16.70
2022-10-10T20:43:59.297Z,16.70
2022-10-10T20:46:30.636Z,16.60
2022-10-10T20:49:00.486Z,16.60
2022-10-10T20:51:29.816Z,16.50
2022-10-10T20:54:03.922Z,16.50
2022-10-10T20:56:33.451Z,16.50
2022-10-10T20:59:01.206Z,16.40
2022-10-10T21:01:30.486Z,16.40
2022-10-10T21:03:58.697Z,16.40
2022-10-10T21:06:34.359Z,16.30
2022-10-10T21:09:05.665Z,16.30
2022-10-10T21:11:33.419Z,16.20
2022-10-10T21:14:01.589Z,16.20
2022-10-10T21:16:34.199Z,16.20
2022-10-10T21:19:01.692Z,16.20
2022-10-10T21:21:32.508Z,16.10
2022-10-10T21:23:59.696Z,16.20
2022-10-10T21:26:28.812Z,16.10
2022-10-10T21:28:57.426Z,16.10
2022-10-10T21:31:34.320Z,16.00
2022-10-10T21:34:03.946Z,16.00
2022-10-10T21:36:31.972Z,15.90
2022-10-10T21:39:00.946Z,15.90
2022-10-10T21:41:28.967Z,15.90
2022-10-10T21:43:58.696Z,15.90
2022-10-10T21:46:36.247Z,15.90
2022-10-10T21:49:08.970Z,15.90
2022-10-10T21:51:45.571Z,15.80
2022-10-10T21:54:13.231Z,15.80
2022-10-10T21:56:40.787Z,15.80
2022-10-10T21:59:08.084Z,15.80
2022-10-10T22:01:37.357Z,15.70
2022-10-10T22:04:05.120Z,15.70
2022-10-10T22:06:32.198Z,15.80
2022-10-10T22:09:01.150Z,15.70
2022-10-10T22:11:31.539Z,15.70
2022-10-10T22:13:58.571Z,15.70
2022-10-10T22:16:25.406Z,15.70
2022-10-10T22:18:57.185Z,15.70
2022-10-10T22:21:30.034Z,15.70
2022-10-10T22:23:59.407Z,15.70
2022-10-10T22:26:26.248Z,15.60
2022-10-10T22:28:53.429Z,15.60
2022-10-10T22:31:20.264Z,15.60
2022-10-10T22:33:47.147Z,15.60
2022-10-10T22:36:13.990Z,15.60
2022-10-10T22:38:44.788Z,15.60
2022-10-10T22:41:12.940Z,15.50
2022-10-10T22:43:40.017Z,15.60
2022-10-10T22:46:07.648Z,15.60
2022-10-10T22:48:35.375Z,15.50
2022-10-10T22:51:06.552Z,15.50
2022-10-10T22:53:34.168Z,15.40
2022-10-10T22:56:01.668Z,15.40
2022-10-10T22:58:28.724Z,15.30
2022-10-10T23:00:55.749Z,15.30
2022-10-10T23:03:22.615Z,15.40
2022-10-10T23:05:49.462Z,15.30
2022-10-10T23:08:16.376Z,15.40
2022-10-10T23:10:44.528Z,15.30
2022-10-10T23:13:11.704Z,15.40
2022-10-10T23:15:39.060Z,15.40
2022-10-10T23:18:06.493Z,15.40
2022-10-10T23:20:33.970Z,15.50
2022-10-10T23:23:00.836Z,15.50
2022-10-10T23:25:27.701Z,15.60
2022-10-10T23:27:54.561Z,15.60
2022-10-10T23:30:21.675Z,15.60
2022-10-10T23:32:48.529Z,15.60
2022-10-10T23:35:15.429Z,15.70
2022-10-10T23:37:45.222Z,15.60
2022-10-10T23:40:12.022Z,15.60
2022-10-10T23:42:38.820Z,15.60
2022-10-10T23:45:06.294Z,15.60
2022-10-10T23:47:33.131Z,15.60
2022-10-10T23:50:00.255Z,15.50
2022-10-10T23:52:27.127Z,15.50
2022-10-10T23:54:53.899Z,15.50
2022-10-10T23:57:20.703Z,15.50
2022-10-10T23:59:47.562Z,15.50
